Time;durP1;ratioP1;P1;durP2;ratioP2;P2;SDS_P1;SDS_P2;PMS_P1;PMS_P2;Temp;Humidity;BMP_temperature;BMP_pressure;BME280_temperature;BME280_humidity;BME280_pressure;Samples;Min_cycle;Max_cycle;Signal;HPM_P1;HPM_P2
2021/04/23 00:00:36;;;;;;;0.20;0.20;;;;;;;3.82;46.54;99626.13;5137573;27;20083;-60
2021/04/23 00:03:11;;;;;;;0.20;0.20;;;;;;;3.78;46.82;99627.50;5136198;27;20031;-61
2021/04/23 00:05:37;;;;;;;0.20;0.20;;;;;;;3.76;46.75;99627.66;5136100;27;20134;-60
2021/04/23 00:08:03;;;;;;;0.20;0.20;;;;;;;3.78;46.76;99635.63;5137292;27;20102;-61
2021/04/23 00:10:29;;;;;;;0.20;0.20;;;;;;;3.79;46.73;99637.34;5137766;27;20027;-60
2021/04/23 00:12:54;;;;;;;0.20;0.20;;;;;;;3.80;46.76;99637.16;5135836;27;20079;-60
2021/04/23 00:15:21;;;;;;;0.10;0.10;;;;;;;3.82;46.73;99626.97;5137251;27;20106;-60
2021/04/23 00:17:48;;;;;;;0.20;0.20;;;;;;;3.83;46.78;99628.69;5137350;27;20035;-61
2021/04/23 00:20:20;;;;;;;0.20;0.20;;;;;;;3.88;47.00;99622.72;5137123;27;20035;-60
2021/04/23 00:22:46;;;;;;;0.20;0.20;;;;;;;3.90;46.96;99626.13;5124278;27;20430;-60
2021/04/23 00:25:13;;;;;;;0.20;0.20;;;;;;;3.93;47.05;99624.91;5116649;28;20039;-60
2021/04/23 00:27:41;;;;;;;0.20;0.20;;;;;;;3.96;47.01;99617.28;5116602;28;20023;-60
2021/04/23 00:30:10;;;;;;;0.20;0.20;;;;;;;3.95;47.10;99621.03;5116656;28;20077;-60
2021/04/23 00:32:51;;;;;;;0.20;0.20;;;;;;;3.93;47.43;99627.63;5116287;28;20035;-60
2021/04/23 00:35:17;;;;;;;0.20;0.20;;;;;;;3.95;47.45;99620.19;5116556;28;20057;-60
2021/04/23 00:37:47;;;;;;;0.20;0.20;;;;;;;3.98;47.20;99622.56;5115971;28;20064;-59
2021/04/23 00:40:19;;;;;;;0.20;0.20;;;;;;;4.06;47.41;99617.09;5116356;28;20027;-60
2021/04/23 00:42:45;;;;;;;0.20;0.20;;;;;;;4.11;47.24;99633.75;5114970;28;20408;-61
2021/04/23 00:45:13;;;;;;;0.10;0.10;;;;;;;4.13;47.38;99623.53;5116283;28;20161;-59
2021/04/23 00:47:42;;;;;;;0.20;0.20;;;;;;;4.12;47.51;99620.97;5116055;28;20133;-60
2021/04/23 00:50:09;;;;;;;0.20;0.20;;;;;;;4.12;47.55;99616.41;5116529;28;20026;-60
2021/04/23 00:52:35;;;;;;;0.20;0.20;;;;;;;4.11;47.76;99614.72;5115928;27;20489;-60
2021/04/23 00:55:00;;;;;;;0.20;0.20;;;;;;;4.12;47.92;99621.84;5115990;28;20031;-60
2021/04/23 00:57:26;;;;;;;0.20;0.20;;;;;;;4.12;47.80;99615.53;5115744;28;20073;-61
2021/04/23 00:59:52;;;;;;;0.17;0.17;;;;;;;4.10;47.97;99610.28;5116198;28;20066;-60
2021/04/23 01:02:18;;;;;;;0.20;0.20;;;;;;;4.10;48.04;99615.72;5116297;28;20491;-59
2021/04/23 01:04:44;;;;;;;0.20;0.20;;;;;;;4.08;48.17;99614.19;5115944;28;20410;-59
2021/04/23 01:07:10;;;;;;;0.20;0.20;;;;;;;4.06;48.38;99606.22;5116135;28;20039;-60
2021/04/23 01:09:36;;;;;;;0.20;0.20;;;;;;;4.01;48.44;99612.16;5115599;28;20023;-58
2021/04/23 01:12:06;;;;;;;0.20;0.20;;;;;;;3.99;48.53;99610.63;5115819;28;20035;-59
2021/04/23 01:14:33;;;;;;;0.20;0.20;;;;;;;3.98;48.61;99617.13;5115316;28;20118;-60
2021/04/23 01:16:59;;;;;;;0.10;0.10;;;;;;;3.94;48.70;99613.88;5115528;28;20032;-60
2021/04/23 01:19:28;;;;;;;0.20;0.20;;;;;;;3.96;48.84;99610.97;5115298;28;20031;-59
2021/04/23 01:21:54;;;;;;;0.17;0.17;;;;;;;3.97;48.66;99613.53;5115955;28;20048;-58
2021/04/23 01:24:20;;;;;;;0.20;0.20;;;;;;;3.99;48.89;99616.06;5115324;28;20031;-58
2021/04/23 01:26:50;;;;;;;0.20;0.20;;;;;;;3.99;48.87;99605.19;5115321;28;20051;-58
2021/04/23 01:29:17;;;;;;;0.20;0.20;;;;;;;3.98;48.90;99614.41;5115346;28;20034;-59
2021/04/23 01:31:46;;;;;;;0.20;0.20;;;;;;;3.98;48.98;99617.13;5115410;28;20110;-60
2021/04/23 01:34:25;;;;;;;0.20;0.20;;;;;;;4.02;49.08;99618.47;5101564;28;20453;-63
2021/04/23 01:36:53;;;;;;;0.20;0.20;;;;;;;4.03;48.83;99612.88;5094647;28;20530;-61
2021/04/23 01:39:23;;;;;;;0.20;0.20;;;;;;;4.06;49.06;99611.66;5101746;28;20080;-59
2021/04/23 01:41:52;;;;;;;0.20;0.20;;;;;;;4.07;48.87;99607.91;5114328;28;20127;-59
2021/04/23 01:44:19;;;;;;;0.20;0.20;;;;;;;4.07;48.97;99613.34;5115343;28;20032;-61
2021/04/23 01:46:45;;;;;;;0.20;0.20;;;;;;;4.04;49.28;99606.38;5114924;28;20093;-61
2021/04/23 01:49:15;;;;;;;0.20;0.20;;;;;;;4.06;49.30;99611.66;5114649;28;20072;-60
2021/04/23 01:51:43;;;;;;;0.20;0.20;;;;;;;4.00;49.28;99604.19;5113921;27;20035;-59
2021/04/23 01:54:11;;;;;;;0.20;0.20;;;;;;;4.00;49.42;99610.47;5111659;27;20476;-56
2021/04/23 01:56:37;;;;;;;0.20;0.20;;;;;;;4.02;49.51;99615.75;5114181;27;20410;-61
2021/04/23 01:59:05;;;;;;;0.20;0.20;;;;;;;3.99;49.60;99614.22;5113228;27;20387;-60
2021/04/23 02:01:33;;;;;;;0.20;0.20;;;;;;;3.99;49.47;99608.78;5114974;27;20027;-61
2021/04/23 02:03:59;;;;;;;0.20;0.20;;;;;;;4.06;49.57;99619.81;5109549;27;20032;-62
2021/04/23 02:06:26;;;;;;;0.30;0.30;;;;;;;4.07;49.56;99613.34;5111872;27;20053;-60
2021/04/23 02:08:53;;;;;;;0.20;0.20;;;;;;;4.09;49.58;99611.28;5102136;28;20114;-62
2021/04/23 02:11:21;;;;;;;0.20;0.20;;;;;;;4.10;49.77;99614.88;5109149;27;20027;-61
2021/04/23 02:13:49;;;;;;;0.20;0.20;;;;;;;4.10;49.81;99613.00;5103973;28;20032;-61
2021/04/23 02:16:17;;;;;;;0.20;0.20;;;;;;;4.10;49.64;99618.44;5103874;28;20122;-60
2021/04/23 02:18:44;;;;;;;0.20;0.20;;;;;;;4.08;49.84;99608.75;5102296;28;20028;-60
2021/04/23 02:21:10;;;;;;;0.20;0.20;;;;;;;4.07;49.93;99607.91;5112094;27;20039;-60
2021/04/23 02:23:38;;;;;;;0.20;0.20;;;;;;;4.09;50.09;99595.00;5103374;28;20308;-60
2021/04/23 02:26:04;;;;;;;0.10;0.10;;;;;;;4.07;49.80;99594.31;5101030;28;20457;-63
2021/04/23 02:28:30;;;;;;;0.20;0.20;;;;;;;4.06;50.04;99605.38;5103180;28;20038;-61
2021/04/23 02:30:59;;;;;;;0.20;0.20;;;;;;;4.04;50.05;99600.13;5102259;28;20032;-60
2021/04/23 02:33:26;;;;;;;0.63;0.63;;;;;;;4.03;50.27;99596.56;5101729;27;20119;-61
2021/04/23 02:35:54;;;;;;;0.20;0.20;;;;;;;4.08;49.96;99600.59;5113496;27;20028;-62
2021/04/23 02:38:22;;;;;;;0.20;0.20;;;;;;;4.13;50.13;99593.63;5091624;28;20058;-60
2021/04/23 02:40:48;;;;;;;0.20;0.20;;;;;;;4.19;49.89;99587.50;5093782;28;20390;-60
2021/04/23 02:43:19;;;;;;;0.20;0.20;;;;;;;4.26;50.05;99582.22;5106575;27;20043;-62
2021/04/23 02:45:48;;;;;;;0.20;0.20;;;;;;;4.29;50.04;99591.91;5113462;28;20039;-61
2021/04/23 02:48:14;;;;;;;0.20;0.20;;;;;;;4.33;50.03;99587.81;5122623;27;20039;-62
2021/04/23 02:50:46;;;;;;;0.20;0.20;;;;;;;4.41;49.78;99582.31;5114035;28;20497;-61
2021/04/23 02:53:12;;;;;;;0.20;0.20;;;;;;;4.48;49.87;99585.19;5122325;27;20523;-61
2021/04/23 02:55:39;;;;;;;0.20;0.20;;;;;;;4.48;50.01;99583.31;5114721;27;20107;-62
2021/04/23 02:58:12;;;;;;;0.10;0.10;;;;;;;4.49;49.88;99579.59;5115396;27;20523;-61
2021/04/23 03:00:41;;;;;;;0.20;0.20;;;;;;;4.57;49.94;99575.97;5113639;28;20035;-61
2021/04/23 03:03:09;;;;;;;0.20;0.20;;;;;;;4.63;49.87;99582.59;5113847;28;20086;-60
2021/04/23 03:05:36;;;;;;;0.20;0.20;;;;;;;4.65;49.94;99588.69;5113567;28;20024;-61
2021/04/23 03:08:03;;;;;;;0.20;0.20;;;;;;;4.68;49.96;99580.16;5113629;28;20392;-59
2021/04/23 03:10:33;;;;;;;0.20;0.20;;;;;;;4.72;49.89;99576.91;5113202;28;20039;-61
2021/04/23 03:13:04;;;;;;;0.20;0.20;;;;;;;4.76;49.94;99582.84;5113637;28;20027;-60
2021/04/23 03:15:30;;;;;;;0.20;0.20;;;;;;;4.75;50.04;99583.88;5113660;28;20401;-61
2021/04/23 03:17:56;;;;;;;0.20;0.20;;;;;;;4.76;50.19;99584.75;5112349;28;20035;-63
2021/04/23 03:20:25;;;;;;;0.20;0.20;;;;;;;4.84;49.95;99588.22;5111719;28;20039;-60
2021/04/23 03:22:53;;;;;;;0.20;0.20;;;;;;;4.89;50.01;99583.13;5116880;27;20027;-63
2021/04/23 03:25:20;;;;;;;0.20;0.20;;;;;;;4.94;49.91;99579.00;5134015;27;20426;-66
2021/04/23 03:27:46;;;;;;;0.20;0.20;;;;;;;5.03;49.68;99578.75;5129590;27;20059;-64
2021/04/23 03:30:16;;;;;;;0.20;0.20;;;;;;;5.14;49.69;99574.81;5111224;28;20024;-62
2021/04/23 03:32:43;;;;;;;0.20;0.20;;;;;;;5.40;49.39;99579.00;5098806;28;20039;-63
2021/04/23 03:35:10;;;;;;;0.20;0.20;;;;;;;5.61;48.91;99573.75;5114390;27;20020;-61
2021/04/23 03:37:37;;;;;;;0.20;0.20;;;;;;;5.82;48.62;99579.53;5118264;27;20058;-62
2021/04/23 03:40:05;;;;;;;0.20;0.20;;;;;;;5.89;48.65;99570.41;5123648;28;20060;-62
2021/04/23 03:42:31;;;;;;;0.20;0.20;;;;;;;5.83;49.04;99579.34;5114366;28;20114;-61
2021/04/23 03:44:57;;;;;;;0.20;0.20;;;;;;;5.78;49.18;99573.59;5133361;27;20035;-62
2021/04/23 03:47:24;;;;;;;0.20;0.20;;;;;;;5.78;49.50;99570.84;5133289;28;20075;-60
2021/04/23 03:49:50;;;;;;;0.20;0.20;;;;;;;5.81;49.56;99567.75;5127839;27;20436;-60
2021/04/23 03:52:16;;;;;;;0.20;0.20;;;;;;;6.01;49.18;99576.28;5112654;28;20028;-61
2021/04/23 03:54:42;;;;;;;0.20;0.20;;;;;;;6.16;49.02;99579.03;5094014;28;20024;-61
2021/04/23 03:57:08;;;;;;;0.20;0.20;;;;;;;6.28;49.01;99565.75;5112741;28;20036;-61
2021/04/23 03:59:34;;;;;;;0.20;0.20;;;;;;;6.37;48.77;99566.50;5112778;28;20035;-61
2021/04/23 04:02:00;;;;;;;0.20;0.20;;;;;;;6.47;48.79;99564.34;5094374;28;20035;-61
2021/04/23 04:04:26;;;;;;;0.20;0.20;;;;;;;6.75;48.53;99572.66;5113275;28;20390;-60
2021/04/23 04:06:52;;;;;;;0.20;0.20;;;;;;;6.95;48.22;99572.91;5112663;28;20032;-61
2021/04/23 04:09:18;;;;;;;0.20;0.20;;;;;;;6.98;48.22;99561.59;5112692;28;20027;-60
2021/04/23 04:11:45;;;;;;;0.20;0.20;;;;;;;6.85;48.68;99569.63;5113146;28;20032;-61
2021/04/23 04:14:11;;;;;;;0.20;0.20;;;;;;;6.62;49.18;99575.22;5112539;28;20027;-62
2021/04/23 04:16:37;;;;;;;0.20;0.20;;;;;;;6.38;49.83;99574.50;5113039;28;20037;-60
2021/04/23 04:19:03;;;;;;;0.20;0.20;;;;;;;6.18;50.39;99579.66;5112693;28;20031;-60
2021/04/23 04:21:30;;;;;;;0.20;0.20;;;;;;;6.09;50.52;99572.63;5116132;28;20081;-60
2021/04/23 04:23:56;;;;;;;0.20;0.20;;;;;;;6.09;50.58;99581.63;5133017;27;20524;-61
2021/04/23 04:26:22;;;;;;;0.20;0.20;;;;;;;6.12;50.66;99575.84;5111013;27;20054;-61
2021/04/23 04:28:48;;;;;;;0.20;0.20;;;;;;;6.17;50.48;99578.00;5112655;28;20074;-60
2021/04/23 04:31:14;;;;;;;0.20;0.20;;;;;;;6.25;50.48;99579.78;5112188;28;20063;-60
2021/04/23 04:33:40;;;;;;;0.20;0.20;;;;;;;6.33;50.12;99579.69;5113051;28;20162;-59
2021/04/23 04:36:06;;;;;;;0.20;0.20;;;;;;;6.38;50.30;99587.31;5112235;28;20031;-61
2021/04/23 04:38:33;;;;;;;0.20;0.20;;;;;;;6.38;50.39;99590.03;5112640;28;20038;-60
2021/04/23 04:40:59;;;;;;;0.20;0.20;;;;;;;6.33;50.58;99590.59;5094060;28;20027;-60
2021/04/23 04:43:25;;;;;;;0.20;0.20;;;;;;;6.31;50.49;99593.50;5111287;28;20412;-59
2021/04/23 04:45:52;;;;;;;0.20;0.20;;;;;;;6.37;50.63;99593.78;5116216;28;20107;-60
2021/04/23 04:48:18;;;;;;;0.20;0.20;;;;;;;6.38;50.70;99584.56;5116590;28;20031;-61
2021/04/23 04:50:50;;;;;;;0.20;0.20;;;;;;;6.37;50.60;99594.63;5116341;28;20043;-59
2021/04/23 04:53:18;;;;;;;0.20;0.20;;;;;;;6.36;50.68;99594.81;5116118;28;20024;-59
2021/04/23 04:55:48;;;;;;;0.20;0.20;;;;;;;6.36;50.72;99597.53;5114515;28;20112;-62
2021/04/23 04:58:17;;;;;;;0.20;0.20;;;;;;;6.27;50.84;99594.06;5114231;28;20035;-60
2021/04/23 05:00:43;;;;;;;0.20;0.20;;;;;;;6.12;51.10;99589.47;5114424;28;20059;-60
2021/04/23 05:03:11;;;;;;;0.20;0.20;;;;;;;5.97;51.52;99592.16;5114197;28;20023;-59
2021/04/23 05:05:37;;;;;;;0.20;0.20;;;;;;;5.84;51.81;99601.97;5135093;27;20027;-60
2021/04/23 05:08:03;;;;;;;0.20;0.20;;;;;;;5.81;52.01;99591.44;5134786;27;20031;-61
2021/04/23 05:10:30;;;;;;;0.20;0.20;;;;;;;5.78;51.84;99589.94;5136036;27;20110;-61
2021/04/23 05:12:56;;;;;;;0.20;0.20;;;;;;;5.74;52.08;99604.94;5134912;27;20110;-60
2021/04/23 05:15:22;;;;;;;0.20;0.20;;;;;;;5.73;51.94;99603.28;5136128;27;20031;-61
2021/04/23 05:17:49;;;;;;;0.20;0.20;;;;;;;5.78;51.97;99611.72;5136280;27;20540;-60
2021/04/23 05:20:17;;;;;;;0.20;0.20;;;;;;;5.81;51.74;99608.63;5136014;27;20518;-60
2021/04/23 05:22:43;;;;;;;0.20;0.20;;;;;;;5.82;51.78;99609.50;5135809;27;20126;-60
2021/04/23 05:25:13;;;;;;;0.20;0.20;;;;;;;5.84;51.86;99611.00;5135975;27;20098;-59
2021/04/23 05:27:39;;;;;;;0.20;0.20;;;;;;;5.82;51.90;99613.06;5135388;27;20039;-59
2021/04/23 05:30:11;;;;;;;0.20;0.20;;;;;;;5.78;51.98;99609.00;5135680;27;20034;-60
2021/04/23 05:32:38;;;;;;;0.20;0.20;;;;;;;5.73;52.24;99617.75;5134481;27;20496;-60
2021/04/23 05:35:05;;;;;;;0.20;0.20;;;;;;;5.70;52.18;99620.00;5134404;27;20030;-60
2021/04/23 05:37:31;;;;;;;0.20;0.20;;;;;;;5.67;52.15;99625.78;5135218;27;20130;-60
2021/04/23 05:39:57;;;;;;;0.20;0.20;;;;;;;5.67;52.33;99623.94;5135398;27;20139;-60
2021/04/23 05:42:23;;;;;;;0.20;0.20;;;;;;;5.68;52.10;99622.88;5134036;27;20027;-60
2021/04/23 05:44:49;;;;;;;0.32;0.32;;;;;;;5.69;52.17;99618.28;5135608;27;20101;-60
2021/04/23 05:47:15;;;;;;;0.20;0.20;;;;;;;5.71;52.21;99621.66;5135301;27;20400;-60
2021/04/23 05:49:40;;;;;;;0.20;0.20;;;;;;;5.74;52.08;99615.84;5135819;27;20470;-60
2021/04/23 05:52:08;;;;;;;0.20;0.20;;;;;;;5.75;52.20;99617.56;5135079;27;20176;-61
2021/04/23 05:54:35;;;;;;;0.20;0.20;;;;;;;5.78;52.04;99612.56;5133828;27;20471;-61
2021/04/23 05:57:03;;;;;;;0.20;0.20;;;;;;;5.85;51.96;99612.69;5135188;27;20027;-61
2021/04/23 05:59:29;;;;;;;0.20;0.20;;;;;;;5.87;52.09;99610.63;5135198;27;20038;-62
2021/04/23 06:01:55;;;;;;;0.20;0.20;;;;;;;5.91;52.08;99617.41;5122908;27;20043;-60
2021/04/23 06:04:21;;;;;;;0.20;0.20;;;;;;;5.97;52.00;99613.13;5114637;27;20062;-59
2021/04/23 06:06:47;;;;;;;0.20;0.20;;;;;;;6.02;51.99;99618.88;5113309;28;20028;-60
2021/04/23 06:09:13;;;;;;;0.20;0.20;;;;;;;6.04;51.82;99622.25;5114833;28;20051;-60
2021/04/23 06:11:40;;;;;;;0.10;0.10;;;;;;;6.06;51.92;99619.34;5114569;28;20538;-62
2021/04/23 06:14:07;;;;;;;0.20;0.20;;;;;;;6.07;51.97;99618.31;5112853;28;20032;-62
2021/04/23 06:16:33;;;;;;;0.20;0.20;;;;;;;6.10;52.01;99615.22;5112785;28;20042;-61
2021/04/23 06:18:58;;;;;;;0.30;0.30;;;;;;;6.13;52.11;99617.56;5112745;28;20031;-59
2021/04/23 06:21:24;;;;;;;0.20;0.20;;;;;;;6.19;52.29;99607.81;5112900;28;20026;-60
2021/04/23 06:23:51;;;;;;;0.20;0.20;;;;;;;6.24;51.91;99610.81;5118590;27;20460;-60
2021/04/23 06:26:17;;;;;;;0.20;0.20;;;;;;;6.25;52.02;99604.31;5117166;27;20157;-60
2021/04/23 06:28:46;;;;;;;0.20;0.20;;;;;;;6.26;52.19;99603.28;5111693;28;20027;-60
2021/04/23 06:31:14;;;;;;;0.20;0.20;;;;;;;6.27;52.21;99604.97;5112924;27;20374;-60
2021/04/23 06:33:43;;;;;;;0.20;0.20;;;;;;;6.32;52.13;99605.28;5113798;28;20039;-60
2021/04/23 06:36:09;;;;;;;0.20;0.20;;;;;;;6.39;52.03;99598.03;5113937;28;20410;-60
2021/04/23 06:38:36;;;;;;;0.20;0.20;;;;;;;6.47;52.03;99597.06;5113624;28;20050;-60
2021/04/23 06:41:02;;;;;;;0.20;0.20;;;;;;;6.57;51.93;99596.81;5113964;28;20028;-60
2021/04/23 06:43:28;;;;;;;0.20;0.20;;;;;;;6.72;51.54;99591.31;5113935;28;20032;-60
2021/04/23 06:45:54;;;;;;;0.20;0.20;;;;;;;6.77;51.77;99589.72;5113823;28;20031;-60
2021/04/23 06:48:21;;;;;;;0.20;0.20;;;;;;;6.80;51.65;99583.00;5095402;28;20482;-60
2021/04/23 06:50:47;;;;;;;0.20;0.20;;;;;;;6.79;51.83;99584.06;5113366;28;20032;-60
2021/04/23 06:53:14;;;;;;;0.20;0.20;;;;;;;6.81;51.73;99585.53;5113624;28;20450;-60
2021/04/23 06:55:41;;;;;;;0.20;0.20;;;;;;;6.94;51.63;99589.47;5113492;28;20028;-60
2021/04/23 06:58:07;;;;;;;0.20;0.20;;;;;;;7.06;51.55;99587.94;5113570;28;20435;-62
2021/04/23 07:00:36;;;;;;;0.20;0.20;;;;;;;7.17;51.37;99589.34;5113812;28;20032;-59
2021/04/23 07:03:03;;;;;;;0.10;0.10;;;;;;;7.25;51.25;99586.47;5109659;28;20027;-60
2021/04/23 07:05:30;;;;;;;0.17;0.17;;;;;;;7.27;51.48;99589.81;5111893;28;20508;-60
2021/04/23 07:07:56;;;;;;;0.10;0.10;;;;;;;7.25;51.50;99591.91;5090620;28;20085;-60
2021/04/23 07:10:26;;;;;;;0.13;0.13;;;;;;;7.28;51.58;99591.53;5092400;28;20394;-60
2021/04/23 07:12:52;;;;;;;0.20;0.20;;;;;;;7.27;51.66;99586.25;5092664;28;20027;-60
2021/04/23 07:15:21;;;;;;;0.20;0.20;;;;;;;7.23;51.69;99588.56;5103440;27;20034;-63
2021/04/23 07:17:49;;;;;;;0.20;0.20;;;;;;;7.15;51.96;99588.66;5111457;27;20036;-59
2021/04/23 07:20:16;;;;;;;0.22;0.22;;;;;;;7.16;52.06;99593.94;5111143;28;20035;-59
2021/04/23 07:22:42;;;;;;;0.30;0.30;;;;;;;7.19;51.79;99595.44;5105691;27;20154;-61
2021/04/23 07:25:09;;;;;;;0.20;0.20;;;;;;;7.16;52.03;99588.47;5111030;27;20032;-61
2021/04/23 07:27:36;;;;;;;0.20;0.20;;;;;;;7.18;52.07;99585.53;5113713;27;20118;-63
2021/04/23 07:30:08;;;;;;;0.20;0.20;;;;;;;7.18;52.10;99585.53;5109866;28;20069;-60
2021/04/23 07:32:34;;;;;;;0.20;0.20;;;;;;;7.20;52.10;99583.47;5116028;28;20038;-61
2021/04/23 07:35:00;;;;;;;0.30;0.30;;;;;;;7.23;51.99;99587.69;5111089;28;20040;-60
2021/04/23 07:37:26;;;;;;;0.20;0.20;;;;;;;7.35;51.82;99588.88;5111326;27;20043;-61
2021/04/23 07:39:52;;;;;;;0.20;0.20;;;;;;;7.52;51.58;99595.78;5122718;28;20033;-61
2021/04/23 07:42:18;;;;;;;0.20;0.20;;;;;;;7.64;51.32;99595.22;5132811;27;20492;-63
2021/04/23 07:44:44;;;;;;;0.20;0.20;;;;;;;7.71;51.19;99597.00;5132582;27;20031;-61
2021/04/23 07:47:10;;;;;;;0.20;0.20;;;;;;;7.75;51.22;99594.72;5127987;27;20054;-62
2021/04/23 07:49:37;;;;;;;0.20;0.20;;;;;;;7.76;51.31;99592.81;5115818;28;20123;-61
2021/04/23 07:52:04;;;;;;;0.20;0.20;;;;;;;7.85;51.19;99588.91;5119917;27;20131;-62
2021/04/23 07:54:30;;;;;;;0.20;0.20;;;;;;;7.94;50.98;99584.13;5123929;28;20031;-60
2021/04/23 07:56:56;;;;;;;0.20;0.20;;;;;;;8.09;50.91;99589.50;5119764;27;20579;-61
2021/04/23 07:59:22;;;;;;;0.20;0.20;;;;;;;8.21;50.70;99586.00;5127332;28;20118;-60
2021/04/23 08:01:51;;;;;;;0.20;0.20;;;;;;;8.48;50.30;99582.59;5133055;27;20035;-60
2021/04/23 08:04:17;;;;;;;0.43;0.43;;;;;;;8.88;49.57;99586.38;5116957;27;20054;-60
2021/04/23 08:06:43;;;;;;;0.20;0.20;;;;;;;9.29;48.94;99570.91;5112499;28;20040;-60
2021/04/23 08:09:09;;;;;;;0.20;0.20;;;;;;;9.71;48.39;99577.06;5112994;28;20511;-61
2021/04/23 08:11:35;;;;;;;0.20;0.20;;;;;;;9.98;48.06;99577.03;5111089;28;20034;-61
2021/04/23 08:14:00;;;;;;;0.20;0.20;;;;;;;10.12;47.98;99575.97;5112201;28;20032;-61
2021/04/23 08:16:26;;;;;;;0.17;0.17;;;;;;;10.23;47.96;99579.13;5111268;28;20126;-60
2021/04/23 08:18:55;;;;;;;0.15;0.15;;;;;;;10.22;48.30;99582.94;5109476;27;20047;-60
2021/04/23 08:21:21;;;;;;;0.10;0.10;;;;;;;10.20;48.37;99579.56;5104520;28;20024;-59
2021/04/23 08:23:47;;;;;;;0.20;0.20;;;;;;;10.15;48.70;99580.22;5103813;28;20508;-62
2021/04/23 08:26:15;;;;;;;0.20;0.20;;;;;;;10.12;48.62;99575.97;5105912;28;20126;-59
2021/04/23 08:28:42;;;;;;;0.10;0.10;;;;;;;10.09;48.98;99584.66;5104755;28;20057;-60
2021/04/23 08:31:10;;;;;;;0.10;0.10;;;;;;;9.97;49.17;99572.63;5088614;27;20168;-60
2021/04/23 08:33:36;;;;;;;0.20;0.20;;;;;;;9.74;49.59;99579.38;5115078;27;20404;-61
2021/04/23 08:36:03;;;;;;;0.20;0.20;;;;;;;9.56;50.10;99576.44;5112589;27;20045;-60
2021/04/23 08:38:29;;;;;;;0.10;0.10;;;;;;;9.45;50.35;99575.13;5108602;27;20104;-61
2021/04/23 08:40:57;;;;;;;0.20;0.20;;;;;;;9.51;50.21;99568.84;5107677;27;20035;-59
2021/04/23 08:43:24;;;;;;;0.10;0.10;;;;;;;9.53;50.15;99572.19;5109839;27;20096;-60
2021/04/23 08:45:51;;;;;;;0.10;0.10;;;;;;;9.42;50.34;99576.41;5105684;27;20062;-59
2021/04/23 08:48:17;;;;;;;0.20;0.20;;;;;;;9.29;50.61;99576.41;5117366;27;20499;-61
2021/04/23 08:50:44;;;;;;;0.20;0.20;;;;;;;9.31;50.50;99562.47;5110946;27;20059;-60
2021/04/23 08:53:11;;;;;;;0.47;0.47;;;;;;;9.50;50.02;99577.28;5104634;28;20035;-61
2021/04/23 08:55:38;;;;;;;0.15;0.15;;;;;;;9.68;49.61;99577.47;5115672;27;20035;-61
2021/04/23 08:58:04;;;;;;;0.30;0.30;;;;;;;9.87;49.26;99577.72;5113501;27;20527;-60
2021/04/23 09:00:31;;;;;;;0.38;0.38;;;;;;;10.01;48.99;99579.38;5108006;27;20040;-61
2021/04/23 09:02:56;;;;;;;0.10;0.10;;;;;;;10.05;48.99;99579.78;5103714;28;20032;-59
2021/04/23 09:05:22;;;;;;;0.10;0.10;;;;;;;9.97;49.22;99583.63;5104301;28;20042;-60
2021/04/23 09:08:06;;;;;;;0.17;0.17;;;;;;;9.91;49.27;99578.94;5102568;28;20058;-62
2021/04/23 09:10:34;;;;;;;0.10;0.10;;;;;;;9.80;49.48;99580.44;5102019;28;20493;-60
2021/04/23 09:13:26;;;;;;;0.20;0.20;;;;;;;9.59;50.17;99592.47;5104004;28;20070;-60
2021/04/23 09:15:55;;;;;;;0.35;0.35;;;;;;;9.44;50.28;99587.16;5109400;27;20804;-60
2021/04/23 09:18:21;;;;;;;0.20;0.20;;;;;;;9.42;50.54;99598.34;5106235;28;20028;-60
2021/04/23 09:20:59;;;;;;;0.20;0.20;;;;;;;9.51;50.05;99592.66;5104718;28;20072;-60
2021/04/23 09:23:25;;;;;;;0.10;0.10;;;;;;;9.67;49.57;99600.47;5103268;28;20035;-62
2021/04/23 09:25:56;;;;;;;0.10;0.10;;;;;;;9.86;49.31;99592.47;5102373;28;20032;-61
2021/04/23 09:28:42;;;;;;;0.17;0.17;;;;;;;9.97;49.12;99600.91;5102521;28;20085;-60
2021/04/23 09:31:29;;;;;;;0.20;0.20;;;;;;;10.03;48.86;99612.94;5103950;28;20507;-60
2021/04/23 09:33:58;;;;;;;0.20;0.20;;;;;;;10.09;48.88;99608.50;5111511;27;20533;-63
2021/04/23 09:36:44;;;;;;;0.20;0.20;;;;;;;10.06;48.96;99604.28;5110006;27;20591;-60
2021/04/23 09:39:25;;;;;;;0.20;0.20;;;;;;;9.89;49.23;99603.84;5104073;28;20028;-61
2021/04/23 09:41:57;;;;;;;0.10;0.10;;;;;;;9.78;49.40;99602.59;5104163;28;20439;-60
2021/04/23 09:44:26;;;;;;;0.20;0.20;;;;;;;9.70;49.64;99594.59;5103101;28;20024;-60
2021/04/23 09:47:03;;;;;;;0.20;0.20;;;;;;;9.68;49.62;99599.41;5106200;27;20797;-65
2021/04/23 09:49:30;;;;;;;0.90;0.68;;;;;;;9.67;49.61;99597.72;5107382;28;20509;-59
2021/04/23 09:51:57;;;;;;;0.40;0.40;;;;;;;9.63;49.66;99607.44;5100777;28;20050;-61
2021/04/23 09:54:25;;;;;;;0.20;0.20;;;;;;;9.74;49.48;99600.47;5103382;28;20020;-60
2021/04/23 09:56:53;;;;;;;0.20;0.20;;;;;;;9.83;49.23;99593.72;5111396;27;20501;-65
2021/04/23 09:59:22;;;;;;;0.60;0.60;;;;;;;9.91;49.05;99596.28;5110359;27;20027;-59
2021/04/23 10:02:02;;;;;;;0.10;0.10;;;;;;;10.09;48.78;99598.38;5111005;27;20024;-61
2021/04/23 10:04:30;;;;;;;0.20;0.20;;;;;;;10.30;48.29;99588.19;5120139;27;20118;-61
2021/04/23 10:07:20;;;;;;;0.20;0.20;;;;;;;10.58;47.98;99589.84;5108315;27;20112;-61
2021/04/23 10:09:57;;;;;;;0.20;0.20;;;;;;;10.86;47.25;99595.91;5101725;28;20032;-60
2021/04/23 10:12:41;;;;;;;0.20;0.20;;;;;;;11.01;47.28;99592.00;5107267;27;20046;-61
2021/04/23 10:15:18;;;;;;;0.20;0.20;;;;;;;11.15;46.91;99588.13;5105903;27;20032;-61
2021/04/23 10:17:53;;;;;;;0.20;0.20;;;;;;;11.27;46.82;99590.19;5101519;28;20100;-61
2021/04/23 10:20:31;;;;;;;0.20;0.20;;;;;;;11.20;47.08;99603.97;5101296;28;20036;-59
2021/04/23 10:22:59;;;;;;;0.20;0.20;;;;;;;11.16;47.29;99598.09;5101250;28;20115;-61
2021/04/23 10:25:26;;;;;;;0.20;0.20;;;;;;;11.27;47.14;99598.44;5102456;28;20027;-60
2021/04/23 10:27:54;;;;;;;0.22;0.22;;;;;;;11.32;47.06;99595.88;5102543;28;20028;-60
2021/04/23 10:30:22;;;;;;;0.17;0.17;;;;;;;11.42;46.87;99589.91;5108542;27;20034;-60
2021/04/23 10:32:51;;;;;;;0.10;0.10;;;;;;;11.51;46.73;99592.16;5107426;27;20039;-62
2021/04/23 10:35:18;;;;;;;0.15;0.15;;;;;;;11.43;46.95;99597.91;5109420;27;20027;-60
2021/04/23 10:37:45;;;;;;;0.10;0.10;;;;;;;11.27;47.37;99592.94;5101274;28;20047;-62
2021/04/23 10:40:14;;;;;;;0.10;0.10;;;;;;;11.05;47.70;99591.34;5102033;27;20509;-60
2021/04/23 10:42:48;;;;;;;0.10;0.10;;;;;;;10.88;48.15;99579.19;5108397;27;20214;-61
2021/04/23 10:45:24;;;;;;;0.20;0.20;;;;;;;10.68;48.40;99591.09;5104901;28;20020;-61
2021/04/23 10:47:56;;;;;;;0.20;0.20;;;;;;;10.49;48.80;99584.59;5100322;28;20466;-59
2021/04/23 10:50:24;;;;;;;0.10;0.10;;;;;;;10.40;48.94;99580.41;5113760;27;20120;-61
2021/04/23 10:53:09;;;;;;;0.10;0.10;;;;;;;10.31;49.17;99592.66;5110255;27;20039;-60
2021/04/23 10:55:42;;;;;;;0.20;0.20;;;;;;;10.40;48.83;99596.03;5102789;28;20027;-60
2021/04/23 10:58:12;;;;;;;0.10;0.10;;;;;;;10.53;48.34;99587.75;5101122;28;20032;-60
2021/04/23 11:00:45;;;;;;;0.20;0.20;;;;;;;10.70;48.17;99590.88;5101861;28;20524;-62
2021/04/23 11:03:33;;;;;;;0.17;0.17;;;;;;;10.81;48.05;99575.63;5100484;28;20493;-61
2021/04/23 11:06:28;;;;;;;0.20;0.20;;;;;;;10.81;47.95;99570.97;5101676;28;20035;-60
2021/04/23 11:08:59;;;;;;;0.20;0.20;;;;;;;10.80;47.76;99561.03;5107141;28;20521;-60
2021/04/23 11:11:30;;;;;;;0.10;0.10;;;;;;;10.78;47.96;99551.34;5100649;28;20085;-61
2021/04/23 11:14:27;;;;;;;0.10;0.10;;;;;;;10.81;47.82;99557.22;5100532;28;20023;-60
2021/04/23 11:17:18;;;;;;;0.20;0.20;;;;;;;10.94;47.66;99556.34;5101557;28;20051;-60
2021/04/23 11:19:48;;;;;;;0.30;0.30;;;;;;;11.13;47.19;99565.53;5101023;28;20115;-60
2021/04/23 11:22:21;;;;;;;0.10;0.10;;;;;;;11.26;47.11;99564.59;5101403;28;20536;-61
2021/04/23 11:25:15;;;;;;;0.10;0.10;;;;;;;11.32;47.03;99569.22;5103998;27;20108;-60
2021/04/23 11:27:59;;;;;;;0.10;0.10;;;;;;;11.35;47.29;99576.16;5103069;28;20481;-62
2021/04/23 11:30:26;;;;;;;0.10;0.10;;;;;;;11.32;46.97;99571.97;5102080;28;20115;-61
2021/04/23 11:32:54;;;;;;;0.10;0.10;;;;;;;11.18;47.58;99584.13;5100710;28;20123;-60
2021/04/23 11:35:22;;;;;;;0.20;0.20;;;;;;;11.01;47.83;99581.00;5102283;28;20036;-61
2021/04/23 11:37:53;;;;;;;0.10;0.10;;;;;;;10.97;48.06;99588.03;5099854;28;20105;-61
2021/04/23 11:40:23;;;;;;;0.10;0.10;;;;;;;10.98;48.03;99581.47;5099881;28;20033;-62
2021/04/23 11:42:50;;;;;;;0.10;0.10;;;;;;;10.93;48.02;99581.28;5111264;28;20027;-61
2021/04/23 11:45:19;;;;;;;0.22;0.22;;;;;;;10.86;48.08;99581.31;5102095;28;20019;-64